Time;durP1;ratioP1;P1;durP2;ratioP2;P2;SDS_P1;SDS_P2;PMS_P1;PMS_P2;Temp;Humidity;BMP_temperature;BMP_pressure;BME280_temperature;BME280_humidity;BME280_pressure;Samples;Min_cycle;Max_cycle;Signal;HPM_P1;HPM_P2
2024/04/15 00:01:25;;;;;;;;;;;;;;;21.88;41.58;97084.63;5021208;21;19998;-82
2024/04/15 00:03:50;;;;;;;1.67;1.30;;;;;;;21.86;41.43;97068.22;5886018;22;19935;-82
2024/04/15 00:30:13;;;;;;;1.88;0.90;;;;;;;21.92;40.79;97013.19;6039175;21;21959;-84
2024/04/15 00:40:24;;;;;;;3.75;1.17;;;;;;;21.69;41.80;96994.94;6143004;21;20214;-80
2024/04/15 00:42:49;;;;;;;2.05;1.40;;;;;;;21.79;41.12;96991.09;5241026;27;20134;-80
2024/04/15 00:45:33;;;;;;;2.13;1.15;;;;;;;21.87;41.22;96978.91;5237176;27;20622;-79
2024/04/15 00:48:00;;;;;;;2.17;1.60;;;;;;;21.88;40.99;96989.19;5236105;27;20448;-82
2024/04/15 00:50:27;;;;;;;2.95;1.25;;;;;;;21.67;40.93;96975.91;5263798;27;20026;-80
2024/04/15 00:52:54;;;;;;;2.13;1.58;;;;;;;21.77;40.55;96972.09;5235044;27;20589;-80
2024/04/15 00:57:55;;;;;;;1.77;1.67;;;;;;;21.69;40.52;96957.81;5942297;21;20023;-80
2024/04/15 01:02:55;;;;;;;;;;;;;;;21.94;40.04;96962.50;6179902;21;20011;-81
2024/04/15 01:10:27;;;;;;;2.60;1.50;;;;;;;21.74;40.49;96948.88;6066412;22;20406;-80
2024/04/15 01:25:47;;;;;;;2.08;1.42;;;;;;;21.46;41.61;96954.69;5976270;22;20000;-80
2024/04/15 01:30:48;;;;;;;2.90;1.63;;;;;;;21.36;41.80;96943.66;5334940;22;19927;-80
2024/04/15 01:33:14;;;;;;;1.95;1.55;;;;;;;21.33;41.99;96945.06;5177804;27;20079;-80
2024/04/15 01:35:39;;;;;;;3.83;2.00;;;;;;;21.26;41.70;96940.25;5172849;27;20015;-80
2024/04/15 01:38:05;;;;;;;2.10;1.65;;;;;;;21.26;41.57;96936.84;5171043;27;20007;-80
2024/04/15 01:40:30;;;;;;;2.08;1.88;;;;;;;21.46;41.55;96954.69;5175253;27;20035;-79
2024/04/15 01:42:55;;;;;;;3.20;1.90;;;;;;;21.37;41.48;96951.28;5173003;27;20003;-80
2024/04/15 01:45:21;;;;;;;3.65;2.10;;;;;;;21.16;41.96;96929.25;5202970;27;20018;-80
2024/04/15 01:47:47;;;;;;;2.63;1.48;;;;;;;21.10;42.60;96941.91;5199937;27;20453;-80
2024/04/15 01:50:14;;;;;;;3.35;1.70;;;;;;;21.01;42.36;96928.72;5148680;27;20011;-80
2024/04/15 01:52:40;;;;;;;2.53;1.90;;;;;;;20.93;42.60;96900.41;5227974;27;20483;-80
2024/04/15 01:55:06;;;;;;;2.25;2.00;;;;;;;21.04;41.94;96904.25;5179487;27;20003;-80
2024/04/15 01:57:31;;;;;;;2.85;1.77;;;;;;;20.99;42.08;96893.84;5198772;27;20022;-80
2024/04/15 02:05:13;;;;;;;2.88;1.90;;;;;;;21.00;41.69;96878.75;6069489;22;20021;-84
2024/04/15 02:07:40;;;;;;;2.55;1.90;;;;;;;20.91;42.29;96876.13;5202074;27;20010;-81
2024/04/15 02:15:16;;;;;;;2.03;1.73;;;;;;;20.93;42.11;96884.53;5199573;27;20012;-80
2024/04/15 02:17:41;;;;;;;2.35;1.70;;;;;;;20.88;42.21;96882.06;5198672;27;20087;-80
2024/04/15 02:20:07;;;;;;;2.90;1.70;;;;;;;20.66;43.52;96885.72;5238240;27;20456;-80
2024/04/15 02:22:33;;;;;;;4.10;2.80;;;;;;;20.56;43.83;96881.53;5216080;27;20110;-80
2024/04/15 02:24:58;;;;;;;3.22;2.17;;;;;;;20.48;43.69;96887.63;5238573;27;20007;-80
2024/04/15 02:27:24;;;;;;;2.53;2.10;;;;;;;20.56;43.80;96881.53;5202981;27;20012;-80
2024/04/15 02:29:49;;;;;;;2.63;1.88;;;;;;;20.54;43.58;96873.91;5213822;27;20008;-80
2024/04/15 02:32:15;;;;;;;2.60;2.00;;;;;;;20.57;43.33;96877.78;5207171;27;20019;-80
2024/04/15 02:34:41;;;;;;;2.33;1.83;;;;;;;20.66;43.29;96875.91;5218300;27;20081;-80
2024/04/15 02:37:07;;;;;;;2.10;1.90;;;;;;;20.65;43.30;96869.09;5248433;27;20030;-80
2024/04/15 02:39:32;;;;;;;2.33;1.60;;;;;;;20.63;43.31;96859.91;5134759;27;20020;-80
2024/04/15 02:41:58;;;;;;;2.55;2.17;;;;;;;20.57;43.60;96857.41;5197640;27;20012;-80
2024/04/15 02:44:23;;;;;;;2.03;1.83;;;;;;;20.54;43.64;96857.25;5194957;27;20457;-81
2024/04/15 02:46:48;;;;;;;2.78;1.80;;;;;;;20.56;43.39;96870.94;5251168;27;20022;-80
2024/04/15 02:49:14;;;;;;;3.58;2.15;;;;;;;20.61;43.07;96878.69;5229213;27;20001;-82
2024/04/15 02:51:39;;;;;;;2.50;2.10;;;;;;;20.63;42.87;96886.34;5373908;22;20345;-80
2024/04/15 02:54:05;;;;;;;3.72;1.80;;;;;;;20.58;43.05;96874.84;5226536;27;20033;-80
2024/04/15 02:56:30;;;;;;;3.00;1.70;;;;;;;20.58;43.39;96876.72;5218803;27;20081;-80
2024/04/15 02:58:55;;;;;;;2.95;2.22;;;;;;;20.53;43.27;96880.28;5193806;27;20081;-80
2024/04/15 03:01:21;;;;;;;2.63;1.67;;;;;;;20.48;43.33;96877.81;5202006;27;20018;-80
2024/04/15 03:03:46;;;;;;;3.47;2.17;;;;;;;20.42;43.03;96880.94;5205236;27;20011;-80
2024/04/15 03:06:11;;;;;;;2.95;1.80;;;;;;;20.43;43.23;96887.81;5179741;27;20018;-80
2024/04/15 03:08:37;;;;;;;2.38;2.05;;;;;;;20.40;43.16;96878.63;5172323;27;20066;-80
2024/04/15 03:11:11;;;;;;;3.10;2.00;;;;;;;20.57;43.11;96861.91;5172526;27;20066;-80
2024/04/15 03:13:37;;;;;;;5.20;2.60;;;;;;;20.55;42.84;96859.59;5204044;27;20484;-80
2024/04/15 03:16:02;;;;;;;2.50;2.05;;;;;;;20.45;43.10;96870.50;5229512;27;20018;-80
2024/04/15 03:18:28;;;;;;;3.03;2.15;;;;;;;20.55;42.67;96870.16;5205923;27;20086;-80
2024/04/15 03:20:53;;;;;;;2.25;2.00;;;;;;;20.49;43.18;96870.66;5159456;27;20357;-80
2024/04/15 03:23:19;;;;;;;2.55;1.90;;;;;;;20.18;43.54;96861.09;5209820;27;20023;-80
2024/04/15 03:25:44;;;;;;;3.53;1.80;;;;;;;20.03;43.81;96859.72;5197119;27;20010;-80
2024/04/15 03:28:09;;;;;;;3.40;2.30;;;;;;;19.95;44.08;96863.94;5206916;27;20011;-80
2024/04/15 03:30:35;;;;;;;2.67;2.20;;;;;;;19.87;44.27;96846.22;5183361;27;20011;-80
2024/04/15 03:33:00;;;;;;;4.60;2.40;;;;;;;19.96;43.79;96862.06;5198401;27;20007;-80
2024/04/15 03:35:26;;;;;;;2.75;1.98;;;;;;;19.88;44.04;96874.19;5233660;27;20021;-80
2024/04/15 03:37:51;;;;;;;3.25;2.00;;;;;;;19.98;43.88;96863.31;5203737;27;20419;-80
2024/04/15 03:40:17;;;;;;;3.33;1.88;;;;;;;20.13;43.42;96853.31;5202685;27;20006;-80
2024/04/15 03:42:42;;;;;;;2.53;2.00;;;;;;;20.16;43.67;96861.41;5173410;27;20010;-80
2024/04/15 03:45:07;;;;;;;3.67;2.22;;;;;;;19.90;44.26;96847.47;5139752;27;20014;-80
2024/04/15 03:47:33;;;;;;;3.25;2.10;;;;;;;19.91;44.32;96855.09;5203345;27;20051;-80
2024/04/15 03:49:58;;;;;;;3.33;2.15;;;;;;;19.83;44.38;96853.22;5177275;27;20269;-80
2024/04/15 03:52:23;;;;;;;2.70;2.50;;;;;;;19.87;44.61;96856.00;5222506;27;19996;-83
2024/04/15 03:54:49;;;;;;;3.53;2.47;;;;;;;19.85;44.23;96853.69;5158777;27;19995;-82
2024/04/15 03:57:14;;;;;;;2.95;2.35;;;;;;;19.96;44.14;96854.91;5227853;27;20014;-83
2024/04/15 03:59:39;;;;;;;14.00;2.83;;;;;;;19.97;43.74;96845.88;5188677;27;20476;-80
2024/04/15 04:02:05;;;;;;;2.92;2.40;;;;;;;19.86;43.87;96849.97;5200019;27;20081;-80
2024/04/15 04:04:31;;;;;;;4.57;2.58;;;;;;;19.75;44.17;96856.63;5179486;27;20101;-80
2024/04/15 04:07:01;;;;;;;5.85;3.65;;;;;;;19.87;42.87;96845.44;5200844;27;20391;-81
2024/04/15 04:09:26;;;;;;;5.32;3.42;;;;;;;19.97;42.40;96855.69;5186173;27;20011;-80
2024/04/15 04:11:52;;;;;;;3.97;3.17;;;;;;;19.84;42.82;96862.69;5141318;27;20025;-80
2024/04/15 04:14:18;;;;;;;3.75;2.70;;;;;;;19.75;43.20;96862.69;5200351;27;20069;-81
2024/04/15 04:16:43;;;;;;;2.97;2.47;;;;;;;19.77;43.43;96857.09;5201115;27;20553;-80
2024/04/15 04:19:09;;;;;;;4.00;2.92;;;;;;;19.79;43.41;96852.28;5203820;27;20022;-80
2024/04/15 04:21:34;;;;;;;3.92;3.05;;;;;;;19.86;43.43;96851.81;5203247;27;20721;-81
2024/04/15 04:24:01;;;;;;;5.32;3.28;;;;;;;19.90;43.28;96858.81;5179089;27;20492;-80
2024/04/15 04:26:26;;;;;;;5.18;2.90;;;;;;;19.88;43.14;96868.13;5205361;27;20010;-80
2024/04/15 04:28:53;;;;;;;3.15;2.78;;;;;;;19.91;42.78;96863.00;5175419;27;20484;-80
2024/04/15 04:31:18;;;;;;;5.00;3.22;;;;;;;19.94;42.01;96856.31;5230058;27;20483;-80
2024/04/15 04:33:44;;;;;;;4.20;2.53;;;;;;;20.01;42.95;96846.03;5230835;27;20003;-80
2024/04/15 04:36:10;;;;;;;3.80;2.90;;;;;;;20.05;42.76;96841.69;5169761;27;20388;-80
2024/04/15 04:38:35;;;;;;;3.97;2.90;;;;;;;20.12;42.36;96847.28;5162307;27;20631;-80
2024/04/15 04:41:01;;;;;;;4.72;3.47;;;;;;;20.12;42.61;96847.28;5198501;27;20581;-80
2024/04/15 04:43:26;;;;;;;3.38;2.83;;;;;;;20.13;42.31;96858.59;5202258;27;20015;-80
2024/04/15 04:45:53;;;;;;;4.00;3.50;;;;;;;20.06;41.74;96842.47;5188153;27;20003;-80
2024/04/15 04:48:19;;;;;;;4.07;2.72;;;;;;;20.17;41.74;96856.91;5200881;27;20070;-80
2024/04/15 04:50:45;;;;;;;5.43;2.70;;;;;;;20.15;42.23;96861.72;5200384;27;20065;-80
2024/04/15 04:53:10;;;;;;;5.95;3.00;;;;;;;20.08;42.46;96858.78;5197043;27;20094;-80
2024/04/15 04:55:37;;;;;;;4.38;2.95;;;;;;;20.04;42.69;96868.44;5173998;27;20011;-80
2024/04/15 04:58:08;;;;;;;3.70;2.63;;;;;;;20.14;42.65;96868.09;5195823;27;20447;-80
2024/04/15 05:00:33;;;;;;;4.75;3.10;;;;;;;20.00;43.03;96865.63;5217866;27;20007;-80
2024/04/15 05:02:59;;;;;;;3.97;2.85;;;;;;;20.08;42.57;96870.13;5228807;27;20015;-81
2024/04/15 05:05:24;;;;;;;4.18;3.40;;;;;;;19.99;42.24;96859.56;5231933;27;20025;-80
2024/04/15 05:07:50;;;;;;;4.90;3.17;;;;;;;20.10;41.98;96869.81;5176860;27;20019;-80
2024/04/15 05:10:15;;;;;;;5.18;3.60;;;;;;;20.22;41.50;96867.31;5202022;27;20455;-81
2024/04/15 05:12:41;;;;;;;4.95;3.58;;;;;;;20.15;41.46;96869.63;5199955;27;20439;-80
2024/04/15 05:15:07;;;;;;;4.90;3.30;;;;;;;20.08;41.69;96879.91;5201445;27;20344;-81
2024/04/15 05:17:33;;;;;;;4.45;3.70;;;;;;;20.04;41.89;96871.06;5209945;27;20011;-85
2024/04/15 05:19:58;;;;;;;5.43;3.33;;;;;;;20.06;41.69;96874.94;5223670;27;20007;-82
2024/04/15 05:22:24;;;;;;;5.20;4.10;;;;;;;20.11;42.51;96881.94;5230947;27;20020;-84
2024/04/15 05:24:49;;;;;;;4.20;2.88;;;;;;;19.93;43.28;96865.31;5222852;27;20018;-81
2024/04/15 05:27:14;;;;;;;4.22;2.88;;;;;;;19.97;43.52;96882.88;5198712;27;20003;-81
2024/04/15 05:29:40;;;;;;;5.65;3.28;;;;;;;19.94;44.07;96883.50;5221005;27;20017;-80
2024/04/15 05:32:06;;;;;;;7.15;3.60;;;;;;;19.87;44.46;96871.88;5228912;27;20439;-81
2024/04/15 05:34:33;;;;;;;5.07;3.20;;;;;;;19.90;44.26;96876.53;5172990;27;20479;-81
2024/04/15 05:36:59;;;;;;;5.05;3.63;;;;;;;19.84;44.72;96873.25;5201191;27;21070;-81
2024/04/15 05:39:24;;;;;;;5.07;4.30;;;;;;;19.77;44.85;96859.75;5235055;27;20085;-81
2024/04/15 05:41:50;;;;;;;6.18;3.97;;;;;;;19.80;44.61;96877.63;5232766;27;20003;-81
2024/04/15 05:44:15;;;;;;;5.68;4.32;;;;;;;19.65;45.00;96861.13;5177712;27;20015;-81
2024/04/15 05:46:49;;;;;;;4.50;3.28;;;;;;;19.86;45.07;96881.66;5204244;27;20007;-81
2024/04/15 05:49:14;;;;;;;5.43;3.67;;;;;;;19.72;45.45;96867.78;5228880;27;20011;-81
2024/04/15 05:51:40;;;;;;;5.40;4.00;;;;;;;19.63;46.01;96858.00;5204098;27;20035;-81
2024/04/15 05:54:05;;;;;;;4.03;3.65;;;;;;;19.71;45.44;96856.44;5146794;27;20010;-81
2024/04/15 05:56:30;;;;;;;7.07;3.72;;;;;;;19.60;45.64;96866.56;5201560;27;20003;-81
2024/04/15 05:58:56;;;;;;;6.45;4.15;;;;;;;19.64;45.69;96875.41;5202264;27;20014;-81
2024/04/15 06:01:21;;;;;;;5.60;3.58;;;;;;;19.58;45.89;96855.50;5177537;27;20059;-81
2024/04/15 06:03:47;;;;;;;6.65;3.90;;;;;;;19.64;45.75;96872.00;5189887;27;20007;-82
2024/04/15 06:06:12;;;;;;;6.10;3.90;;;;;;;19.58;45.84;96868.72;5203411;27;20363;-81
2024/04/15 06:08:39;;;;;;;5.95;3.90;;;;;;;19.62;46.08;96861.75;5203420;27;20007;-81
2024/04/15 06:11:04;;;;;;;5.70;4.22;;;;;;;19.73;46.01;96859.56;5205337;27;20014;-81
2024/04/15 06:13:29;;;;;;;5.10;3.83;;;;;;;19.76;45.64;96855.56;5204885;27;20018;-82
2024/04/15 06:15:55;;;;;;;7.22;4.80;;;;;;;19.83;45.17;96847.94;5157409;27;20011;-81
2024/04/15 06:18:20;;;;;;;7.28;4.65;;;;;;;19.81;45.53;96865.97;5201782;27;20380;-80
2024/04/15 06:20:45;;;;;;;6.40;4.18;;;;;;;19.85;45.51;96861.59;5204041;27;20078;-87
2024/04/15 06:23:11;;;;;;;5.38;3.97;;;;;;;19.86;45.31;96862.38;5147961;27;20008;-86
2024/04/15 06:25:36;;;;;;;5.63;4.20;;;;;;;19.74;46.08;96844.47;5218821;27;20541;-88
2024/04/15 06:28:02;;;;;;;5.50;4.20;;;;;;;19.89;45.62;96843.25;5161922;27;20018;-87
2024/04/15 06:30:27;;;;;;;6.85;3.97;;;;;;;19.93;45.59;96842.34;5209438;27;20014;-87
2024/04/15 06:32:52;;;;;;;5.13;3.92;;;;;;;19.86;45.05;96844.69;5200937;27;20029;-87
2024/04/15 06:35:18;;;;;;;7.47;4.25;;;;;;;19.93;44.49;96833.59;5213734;27;20008;-89
2024/04/15 06:37:43;;;;;;;6.28;4.22;;;;;;;19.96;44.23;96827.69;5180412;27;20461;-88
2024/04/15 06:40:09;;;;;;;6.03;3.80;;;;;;;19.92;43.59;96832.84;5208030;27;20007;-83
2024/04/15 06:42:35;;;;;;;7.40;4.32;;;;;;;19.99;43.43;96833.13;5199026;27;20007;-83
2024/04/15 06:45:00;;;;;;;5.95;4.20;;;;;;;19.69;43.80;96820.88;5209631;27;20030;-83
2024/04/15 06:47:25;;;;;;;9.23;4.75;;;;;;;19.92;43.61;96827.56;5144792;27;20007;-81
2024/04/15 06:49:51;;;;;;;4.75;3.83;;;;;;;19.87;43.31;96840.94;5194455;27;20007;-82
2024/04/15 06:52:16;;;;;;;7.13;4.00;;;;;;;19.87;43.33;96837.50;5209721;27;20093;-82
2024/04/15 06:54:42;;;;;;;6.15;4.35;;;;;;;19.88;43.06;96823.19;5209401;27;20034;-82
2024/04/15 06:57:08;;;;;;;6.13;4.65;;;;;;;19.76;44.19;96800.09;5213985;27;20040;-83
2024/04/15 06:59:33;;;;;;;12.07;3.85;;;;;;;19.88;42.31;96805.50;5206922;27;20011;-83
2024/04/15 07:01:59;;;;;;;5.15;3.40;;;;;;;19.94;42.33;96806.09;5180434;27;20003;-82
2024/04/15 07:04:24;;;;;;;6.05;3.58;;;;;;;19.92;41.61;96800.34;5209206;27;20054;-83
2024/04/15 07:06:49;;;;;;;6.38;3.25;;;;;;;20.11;41.67;96816.63;5207695;27;20015;-83
2024/04/15 07:09:15;;;;;;;4.90;3.63;;;;;;;20.18;41.55;96814.28;5180773;27;20281;-83
2024/04/15 07:11:40;;;;;;;5.05;3.17;;;;;;;20.32;42.18;96811.47;5148763;27;22063;-83
2024/04/15 07:14:06;;;;;;;6.13;2.75;;;;;;;20.24;40.96;96812.25;5181861;27;20007;-83
2024/04/15 07:16:32;;;;;;;5.22;2.78;;;;;;;20.21;41.17;96807.59;5182169;27;20007;-83
2024/04/15 07:18:57;;;;;;;3.20;2.25;;;;;;;20.35;39.42;96802.88;5181164;27;20099;-82
2024/04/15 07:21:23;;;;;;;2.85;2.17;;;;;;;20.38;39.22;96786.38;5181855;27;20030;-83
2024/04/15 07:23:48;;;;;;;3.88;2.20;;;;;;;20.26;40.16;96777.56;5153171;27;20424;-83
2024/04/15 07:26:14;;;;;;;3.75;2.20;;;;;;;20.25;39.63;96784.72;5230454;27;20074;-83
2024/04/15 07:28:39;;;;;;;5.38;2.20;;;;;;;20.24;39.55;96787.66;5208524;27;20099;-83
2024/04/15 07:31:05;;;;;;;5.13;2.03;;;;;;;20.13;39.38;96761.59;5206985;27;20007;-83
2024/04/15 07:33:31;;;;;;;5.10;2.20;;;;;;;20.29;38.83;96777.72;5209821;27;20062;-83
2024/04/15 07:35:59;;;;;;;4.75;2.08;;;;;;;19.99;39.47;96777.63;5208224;27;20033;-80
2024/04/15 07:38:25;;;;;;;2.70;1.73;;;;;;;20.12;39.83;96748.72;5184033;27;20011;-82
2024/04/15 07:40:50;;;;;;;3.53;2.20;;;;;;;20.32;38.49;96750.66;5182015;27;20018;-83
2024/04/15 07:43:16;;;;;;;4.53;1.98;;;;;;;20.65;38.47;96752.69;5236843;27;20834;-82
2024/04/15 07:45:41;;;;;;;3.80;1.85;;;;;;;20.39;38.91;96731.63;5209171;27;20025;-82
2024/04/15 07:48:07;;;;;;;3.08;1.92;;;;;;;20.69;38.55;96740.34;5208752;27;20014;-83
2024/04/15 07:50:32;;;;;;;3.58;2.13;;;;;;;20.58;38.09;96752.41;5153704;27;20011;-83
2024/04/15 07:52:58;;;;;;;3.33;2.28;;;;;;;20.52;38.54;96735.16;5208620;27;20007;-82
2024/04/15 07:55:24;;;;;;;3.05;2.20;;;;;;;20.74;37.50;96732.22;5176674;27;20465;-83
2024/04/15 07:57:49;;;;;;;3.88;2.67;;;;;;;20.87;37.49;96740.25;5233507;27;20399;-82
2024/04/15 08:00:15;;;;;;;3.47;2.55;;;;;;;20.85;36.64;96743.22;5206771;27;20011;-82
2024/04/15 08:02:40;;;;;;;3.38;1.80;;;;;;;20.92;37.90;96742.69;5209572;27;20094;-83
2024/04/15 08:05:05;;;;;;;3.58;2.15;;;;;;;21.04;37.40;96742.00;5208335;27;20003;-81
2024/04/15 08:07:32;;;;;;;2.33;1.90;;;;;;;21.05;36.54;96727.69;5209339;27;20011;-83
2024/04/15 08:09:58;;;;;;;4.95;1.92;;;;;;;21.06;37.52;96727.34;5205076;27;20043;-83
2024/04/15 08:12:23;;;;;;;3.88;2.22;;;;;;;21.31;37.04;96719.50;5223208;27;20011;-83
2024/04/15 08:14:49;;;;;;;3.10;1.67;;;;;;;21.46;36.65;96720.78;5234144;27;20010;-82
2024/04/15 08:17:14;;;;;;;2.22;1.88;;;;;;;21.49;35.83;96707.69;5208101;27;20435;-83
2024/04/15 08:19:40;;;;;;;3.83;1.90;;;;;;;21.36;36.51;96711.38;5208163;27;20019;-82
2024/04/15 08:22:05;;;;;;;4.72;2.40;;;;;;;21.33;36.89;96710.16;5180148;27;20002;-83
2024/04/15 08:24:30;;;;;;;4.13;2.05;;;;;;;21.13;36.63;96718.91;5208291;27;20018;-82
2024/04/15 08:26:56;;;;;;;4.18;2.38;;;;;;;20.87;37.88;96706.63;5178011;27;20007;-82
2024/04/15 08:29:21;;;;;;;5.40;2.50;;;;;;;21.04;39.04;96708.38;5207169;27;20025;-83
2024/04/15 08:31:46;;;;;;;3.50;2.10;;;;;;;21.23;38.84;96712.41;5181333;27;20078;-83
2024/04/15 08:34:12;;;;;;;3.92;1.98;;;;;;;21.61;38.21;96708.81;5208315;27;20042;-82
2024/04/15 08:36:37;;;;;;;5.75;2.22;;;;;;;21.73;37.13;96692.16;5181302;27;20007;-82
2024/04/15 08:39:03;;;;;;;4.90;2.10;;;;;;;21.83;36.71;96692.53;5208501;27;19999;-82
2024/04/15 08:41:29;;;;;;;3.78;2.55;;;;;;;21.61;37.58;96695.56;5181297;27;20550;-87
2024/04/15 08:44:03;;;;;;;5.22;3.30;;;;;;;21.54;36.05;96682.09;5209034;27;20082;-86
2024/04/15 08:46:34;;;;;;;4.05;2.47;;;;;;;21.74;35.55;96685.78;5195212;27;20841;-88
2024/04/15 08:48:59;;;;;;;5.75;2.60;;;;;;;21.23;38.07;96675.34;5234623;27;20003;-85
2024/04/15 08:51:25;;;;;;;4.28;2.67;;;;;;;21.31;36.24;96671.84;5179113;27;20007;-84
2024/04/15 08:53:50;;;;;;;4.55;1.77;;;;;;;21.22;36.14;96669.28;5153959;27;20460;-85
2024/04/15 08:56:16;;;;;;;4.38;1.80;;;;;;;21.13;36.52;96674.66;5177022;27;20086;-86
2024/04/15 08:58:43;;;;;;;2.55;1.92;;;;;;;21.00;36.76;96675.69;5209147;27;20015;-87
2024/04/15 09:01:08;;;;;;;4.43;1.60;;;;;;;20.79;36.67;96657.19;5208218;27;20007;-82
2024/04/15 09:03:35;;;;;;;4.75;1.73;;;;;;;20.79;36.30;96664.38;5202849;27;20004;-82
2024/04/15 09:06:00;;;;;;;3.22;1.48;;;;;;;20.88;35.54;96654.47;5205978;27;20371;-82
2024/04/15 09:08:25;;;;;;;3.30;1.23;;;;;;;20.92;37.00;96671.25;5175687;27;20012;-82
2024/04/15 09:10:51;;;;;;;2.65;1.15;;;;;;;20.74;37.41;96652.09;5215342;27;20003;-81
2024/04/15 09:13:17;;;;;;;2.45;1.33;;;;;;;20.95;36.20;96660.78;5210439;27;20026;-83
2024/04/15 09:15:47;;;;;;;4.28;1.30;;;;;;;20.66;38.04;96656.34;5212145;27;20011;-81
2024/04/15 09:18:12;;;;;;;3.38;1.38;;;;;;;21.21;37.22;96649.19;5211306;27;20572;-82
2024/04/15 09:20:38;;;;;;;3.35;1.20;;;;;;;21.67;36.67;96657.16;5182612;27;20007;-82
2024/04/15 09:23:06;;;;;;;3.83;1.70;;;;;;;22.01;34.54;96666.59;5182749;27;20011;-82
2024/04/15 09:25:32;;;;;;;3.20;1.25;;;;;;;22.14;35.81;96659.41;5208981;27;20359;-82
2024/04/15 09:27:57;;;;;;;2.67;1.27;;;;;;;21.85;35.22;96657.75;5210756;27;20007;-82
2024/04/15 09:30:22;;;;;;;3.67;1.50;;;;;;;21.88;36.40;96644.63;5240109;27;20003;-82
2024/04/15 09:32:48;;;;;;;2.08;1.40;;;;;;;21.79;34.36;96651.13;5210972;27;19999;-81
2024/04/15 09:35:13;;;;;;;2.90;1.52;;;;;;;21.77;34.73;96640.06;5208543;27;20054;-81
2024/04/15 09:37:39;;;;;;;4.35;1.70;;;;;;;21.82;35.57;96643.28;5182657;27;20450;-83
2024/04/15 09:40:08;;;;;;;3.15;1.35;;;;;;;21.70;34.68;96630.78;5211695;27;20077;-81
2024/04/15 09:42:33;;;;;;;4.00;1.80;;;;;;;21.62;35.73;96625.59;5183699;27;20007;-83
2024/04/15 09:44:59;;;;;;;3.03;1.65;;;;;;;21.50;35.11;96621.06;5210220;27;20073;-82
2024/04/15 09:47:26;;;;;;;5.25;1.60;;;;;;;21.11;37.45;96610.69;5236852;27;20014;-79
2024/04/15 09:49:51;;;;;;;2.17;1.45;;;;;;;21.87;36.65;96616.56;5181847;27;20273;-82
2024/04/15 09:52:22;;;;;;;2.75;1.40;;;;;;;22.14;35.99;96597.66;5208059;27;20007;-87
2024/04/15 09:54:53;;;;;;;3.60;1.33;;;;;;;21.57;36.05;96594.78;5210208;27;20638;-86
2024/04/15 09:57:20;;;;;;;3.53;1.17;;;;;;;21.93;35.48;96592.47;5170324;27;20013;-87
2024/04/15 09:59:55;;;;;;;3.00;1.08;;;;;;;22.51;34.33;96592.31;5210597;27;20007;-87
2024/04/15 10:02:30;;;;;;;3.97;1.30;;;;;;;22.13;34.20;96578.31;5208912;27;20018;-85
2024/04/15 10:05:19;;;;;;;3.05;1.33;;;;;;;22.52;34.49;96589.31;5210521;27;20038;-87
2024/04/15 10:07:49;;;;;;;2.90;0.90;;;;;;;22.62;33.85;96583.53;5210899;27;20007;-86
2024/04/15 10:10:15;;;;;;;3.65;1.20;;;;;;;22.74;34.62;96568.66;5175728;27;20011;-87
2024/04/15 10:12:41;;;;;;;5.65;1.58;;;;;;;22.56;33.87;96576.16;5203222;27;20012;-80
2024/04/15 10:15:08;;;;;;;1.55;1.17;;;;;;;23.14;33.76;96575.81;5196647;27;20094;-81
2024/04/15 10:17:33;;;;;;;3.40;1.27;;;;;;;23.14;32.92;96562.53;5182083;27;20003;-81
2024/04/15 10:20:07;;;;;;;3.08;0.98;;;;;;;23.47;33.22;96564.09;5234824;27;20074;-81
2024/04/15 10:22:33;;;;;;;3.92;1.77;;;;;;;23.29;33.11;96561.78;5190800;27;20457;-81
2024/04/15 10:24:58;;;;;;;3.35;1.13;;;;;;;23.18;32.24;96540.28;5178836;27;20033;-81
2024/04/15 10:27:24;;;;;;;4.90;1.50;;;;;;;23.52;32.26;96559.28;5182854;27;20316;-82
2024/04/15 10:29:49;;;;;;;4.53;1.30;;;;;;;23.46;32.37;96549.25;5210004;27;20107;-81
2024/04/15 10:32:15;;;;;;;2.22;1.80;;;;;;;23.13;33.43;96534.41;5183017;27;20019;-80
2024/04/15 10:34:44;;;;;;;2.60;1.13;;;;;;;24.29;31.61;96535.91;5199421;27;20000;-81
2024/04/15 10:37:12;;;;;;;4.28;1.35;;;;;;;24.09;31.00;96535.91;5207724;27;20007;-79
2024/04/15 10:39:46;;;;;;;2.45;0.88;;;;;;;23.51;32.34;96527.72;5237521;27;20035;-79
2024/04/15 10:42:12;;;;;;;2.80;1.10;;;;;;;23.68;31.87;96532.69;5208032;27;20102;-82
2024/04/15 10:44:37;;;;;;;3.38;0.80;;;;;;;23.60;33.41;96512.38;5208787;27;20007;-81
2024/04/15 10:47:04;;;;;;;3.42;0.85;;;;;;;23.58;30.83;96514.63;5203587;27;20491;-78
2024/04/15 10:49:30;;;;;;;1.67;0.77;;;;;;;23.58;30.55;96505.88;5209934;27;20560;-81
2024/04/15 10:51:55;;;;;;;2.22;1.10;;;;;;;23.86;30.31;96503.09;5208926;27;20003;-81
2024/04/15 10:54:21;;;;;;;3.50;1.13;;;;;;;24.11;31.78;96492.97;5207025;27;20007;-80
2024/04/15 10:56:47;;;;;;;2.63;1.23;;;;;;;23.80;32.77;96489.25;5204588;27;20003;-80
2024/04/15 10:59:15;;;;;;;2.60;1.30;;;;;;;24.20;31.32;96485.56;5178647;27;20037;-81
2024/04/15 11:01:44;;;;;;;3.38;1.10;;;;;;;24.16;30.70;96494.59;5204743;27;20003;-89
2024/04/15 11:04:10;;;;;;;3.33;1.05;;;;;;;23.74;33.53;96480.81;5184038;27;20351;-84
2024/04/15 11:06:36;;;;;;;3.53;1.50;;;;;;;23.85;31.71;96462.44;5210313;27;20011;-83
2024/04/15 11:09:01;;;;;;;5.57;1.63;;;;;;;24.05;32.49;96478.44;5178608;27;20018;-83
2024/04/15 11:11:27;;;;;;;2.08;1.02;;;;;;;23.99;30.37;96474.50;5204434;27;20086;-84
2024/04/15 11:13:52;;;;;;;3.35;1.52;;;;;;;23.87;31.03;96451.47;5209022;27;20026;-84
2024/04/15 11:16:18;;;;;;;2.95;1.60;;;;;;;24.37;30.81;96462.31;5211430;27;20030;-84
2024/04/15 11:18:43;;;;;;;2.85;1.13;;;;;;;24.52;29.91;96436.72;5208140;27;20407;-86
2024/04/15 11:21:09;;;;;;;1.40;1.05;;;;;;;23.86;31.35;96426.00;5174491;27;20030;-84
2024/04/15 11:23:34;;;;;;;3.53;1.00;;;;;;;23.97;30.70;96419.00;5202310;27;20022;-80
2024/04/15 11:26:01;;;;;;;2.47;0.98;;;;;;;24.55;29.65;96423.50;5203024;27;20007;-81
2024/04/15 11:28:27;;;;;;;2.97;0.90;;;;;;;24.70;28.46;96405.91;5175874;27;20007;-81
2024/04/15 11:30:56;;;;;;;2.80;1.00;;;;;;;25.04;28.54;96409.47;5179133;27;20019;-81
2024/04/15 11:33:21;;;;;;;3.65;1.05;;;;;;;24.26;30.69;96408.91;5148537;27;20039;-81
2024/04/15 11:35:47;;;;;;;1.85;0.80;;;;;;;24.64;29.18;96412.63;5193392;27;20007;-79
2024/04/15 11:38:13;;;;;;;3.25;1.20;;;;;;;24.35;32.15;96406.81;5209078;27;20026;-78
2024/04/15 11:40:39;;;;;;;1.52;0.93;;;;;;;24.49;30.78;96401.72;5218156;27;20018;-80
2024/04/15 11:43:04;;;;;;;3.90;1.88;;;;;;;23.99;31.45;96384.88;5157407;27;20011;-81
2024/04/15 11:45:30;;;;;;;2.85;1.02;;;;;;;24.08;31.02;96397.94;5200331;27;20094;-80
2024/04/15 11:47:59;;;;;;;2.33;0.90;;;;;;;23.57;29.38;96393.50;5178884;27;20022;-79
2024/04/15 11:50:25;;;;;;;2.25;0.80;;;;;;;23.92;30.05;96390.81;5206699;27;20467;-80
2024/04/15 11:52:50;;;;;;;2.58;0.80;;;;;;;23.89;30.51;96375.56;5182006;27;20225;-79
2024/04/15 11:55:21;;;;;;;2.67;1.20;;;;;;;23.59;30.47;96367.34;5181136;27;20022;-81
2024/04/15 11:57:47;;;;;;;2.85;0.77;;;;;;;23.89;30.12;96358.84;5209149;27;20003;-80
2024/04/15 12:00:13;;;;;;;2.28;0.82;;;;;;;24.45;29.99;96353.00;5180662;27;20021;-80
2024/04/15 12:02:40;;;;;;;2.65;0.90;;;;;;;24.31;29.11;96368.72;5208713;27;20007;-78
2024/04/15 12:05:06;;;;;;;1.75;0.80;;;;;;;24.25;29.92;96354.19;5181990;27;20030;-80
2024/04/15 12:07:31;;;;;;;3.10;1.10;;;;;;;24.81;26.64;96345.63;5232394;27;20073;-82
2024/04/15 12:09:58;;;;;;;2.58;1.08;;;;;;;24.49;27.33;96321.13;5206360;27;20007;-80
2024/04/15 12:12:23;;;;;;;1.73;0.63;;;;;;;24.59;28.59;96333.88;5176088;27;20453;-87
2024/04/15 12:14:49;;;;;;;3.13;0.80;;;;;;;24.73;27.53;96330.66;5204009;27;20018;-85
2024/04/15 12:17:14;;;;;;;3.85;0.80;;;;;;;24.26;27.34;96342.41;5208416;27;20086;-82
2024/04/15 12:19:39;;;;;;;1.60;0.77;;;;;;;24.48;26.03;96320.34;5207691;27;19999;-87
2024/04/15 12:22:05;;;;;;;2.30;0.80;;;;;;;25.04;26.52;96313.59;5208227;27;20029;-84
2024/04/15 12:24:30;;;;;;;1.85;0.80;;;;;;;25.65;26.76;96302.94;5207486;27;20043;-84
2024/04/15 12:26:56;;;;;;;3.58;0.90;;;;;;;25.33;27.92;96310.56;5209643;27;20007;-84
2024/04/15 12:29:21;;;;;;;3.72;1.08;;;;;;;24.68;27.46;96286.47;5174894;27;20025;-85
2024/04/15 12:31:50;;;;;;;3.60;0.80;;;;;;;24.19;24.98;96305.81;5225714;27;20014;-83
2024/04/15 12:34:18;;;;;;;3.58;0.82;;;;;;;24.09;28.36;96283.25;5200553;27;20455;-83
2024/04/15 12:36:43;;;;;;;2.50;0.95;;;;;;;23.64;26.76;96274.03;5181596;27;20003;-81